sensor_id;sensor_type;location;lat;lon;timestamp;pressure;altitude;pressure_sealevel;temperature;humidity
60228;BME280;46091;46.512;6.626;2023-05-02T05:23:48;97134.47;;;13.92;61.08
60228;BME280;46091;46.512;6.626;2023-05-02T05:25:51;97133.63;;;14.25;60.73
60228;BME280;46091;46.512;6.626;2023-05-02T05:27:54;97140.94;;;14.49;60.44
60228;BME280;46091;46.512;6.626;2023-05-02T05:29:57;97145.41;;;14.69;59.99
60228;BME280;46091;46.512;6.626;2023-05-02T05:32:01;97139.41;;;14.80;59.63
60228;BME280;46091;46.512;6.626;2023-05-02T05:34:04;97144.69;;;14.93;59.37
60228;BME280;46091;46.512;6.626;2023-05-02T05:36:08;97145.91;;;14.97;59.23
60228;BME280;46091;46.512;6.626;2023-05-02T05:38:11;97139.50;;;15.05;59.30
60228;BME280;46091;46.512;6.626;2023-05-02T05:40:15;97147.47;;;15.11;58.72
60228;BME280;46091;46.512;6.626;2023-05-02T05:42:18;97140.28;;;15.19;58.86
60228;BME280;46091;46.512;6.626;2023-05-02T05:44:21;97137.19;;;15.22;58.74
60228;BME280;46091;46.512;6.626;2023-05-02T05:46:26;97141.47;;;15.23;58.56
60228;BME280;46091;46.512;6.626;2023-05-02T05:48:28;97149.81;;;15.33;58.39
60228;BME280;46091;46.512;6.626;2023-05-02T05:50:31;97156.75;;;15.40;58.22
60228;BME280;46091;46.512;6.626;2023-05-02T05:52:34;97154.47;;;15.44;58.19
60228;BME280;46091;46.512;6.626;2023-05-02T05:54:39;97156.88;;;15.52;58.00
60228;BME280;46091;46.512;6.626;2023-05-02T05:56:46;97152.50;;;15.64;57.82
60228;BME280;46091;46.512;6.626;2023-05-02T05:58:49;97152.56;;;15.83;57.69
60228;BME280;46091;46.512;6.626;2023-05-02T06:00:52;97155.56;;;15.93;57.62
60228;BME280;46091;46.512;6.626;2023-05-02T06:02:55;97153.00;;;16.05;57.36
60228;BME280;46091;46.512;6.626;2023-05-02T06:04:58;97147.97;;;16.15;57.03
60228;BME280;46091;46.512;6.626;2023-05-02T06:07:01;97153.84;;;16.23;57.16
60228;BME280;46091;46.512;6.626;2023-05-02T06:09:04;97159.72;;;16.32;56.98
60228;BME280;46091;46.512;6.626;2023-05-02T06:11:08;97176.25;;;16.41;57.06
60228;BME280;46091;46.512;6.626;2023-05-02T06:13:13;97173.88;;;16.51;56.94
60228;BME280;46091;46.512;6.626;2023-05-02T06:15:17;97171.38;;;16.56;56.75
60228;BME280;46091;46.512;6.626;2023-05-02T06:17:20;97177.09;;;16.59;56.52
60228;BME280;46091;46.512;6.626;2023-05-02T06:19:23;97178.50;;;16.62;56.42
60228;BME280;46091;46.512;6.626;2023-05-02T06:21:26;97182.78;;;16.63;56.38
60228;BME280;46091;46.512;6.626;2023-05-02T06:23:30;97186.88;;;16.66;56.34
60228;BME280;46091;46.512;6.626;2023-05-02T06:25:36;97185.19;;;16.71;56.23
60228;BME280;46091;46.512;6.626;2023-05-02T06:27:39;97182.75;;;16.70;56.24
60228;BME280;46091;46.512;6.626;2023-05-02T06:29:44;97173.47;;;16.72;56.10
60228;BME280;46091;46.512;6.626;2023-05-02T06:31:47;97178.53;;;16.80;56.10
60228;BME280;46091;46.512;6.626;2023-05-02T06:33:51;97181.44;;;16.79;55.75
60228;BME280;46091;46.512;6.626;2023-05-02T06:35:54;97176.75;;;16.74;55.81
60228;BME280;46091;46.512;6.626;2023-05-02T06:37:59;97184.53;;;16.76;55.88
60228;BME280;46091;46.512;6.626;2023-05-02T06:40:03;97181.03;;;16.75;55.76
60228;BME280;46091;46.512;6.626;2023-05-02T06:42:06;97182.69;;;16.76;55.33
60228;BME280;46091;46.512;6.626;2023-05-02T06:44:10;97178.81;;;16.72;55.56
60228;BME280;46091;46.512;6.626;2023-05-02T06:46:14;97185.78;;;16.73;55.57
60228;BME280;46091;46.512;6.626;2023-05-02T06:48:18;97180.03;;;16.76;55.53
60228;BME280;46091;46.512;6.626;2023-05-02T06:50:21;97190.53;;;16.71;55.42
60228;BME280;46091;46.512;6.626;2023-05-02T06:52:24;97185.19;;;16.71;55.46
60228;BME280;46091;46.512;6.626;2023-05-02T06:54:27;97185.78;;;16.73;55.21
60228;BME280;46091;46.512;6.626;2023-05-02T06:56:31;97186.47;;;16.69;55.12
60228;BME280;46091;46.512;6.626;2023-05-02T06:58:34;97197.75;;;16.71;55.07
60228;BME280;46091;46.512;6.626;2023-05-02T07:00:37;97190.09;;;16.74;55.10
60228;BME280;46091;46.512;6.626;2023-05-02T07:02:41;97184.31;;;16.77;54.95
60228;BME280;46091;46.512;6.626;2023-05-02T07:04:44;97200.34;;;16.77;54.84
60228;BME280;46091;46.512;6.626;2023-05-02T07:06:47;97191.13;;;16.73;54.62
60228;BME280;46091;46.512;6.626;2023-05-02T07:08:51;97204.47;;;16.73;54.85
60228;BME280;46091;46.512;6.626;2023-05-02T07:10:54;97196.91;;;16.70;54.50
60228;BME280;46091;46.512;6.626;2023-05-02T07:12:57;97196.34;;;16.68;54.50
60228;BME280;46091;46.512;6.626;2023-05-02T07:15:00;97202.50;;;16.62;54.37
60228;BME280;46091;46.512;6.626;2023-05-02T07:17:03;97198.72;;;16.51;54.22
60228;BME280;46091;46.512;6.626;2023-05-02T07:19:07;97185.88;;;16.42;54.43
60228;BME280;46091;46.512;6.626;2023-05-02T07:21:10;97188.41;;;16.37;54.12
60228;BME280;46091;46.512;6.626;2023-05-02T07:23:13;97186.31;;;16.39;54.33
60228;BME280;46091;46.512;6.626;2023-05-02T07:25:16;97182.19;;;16.43;54.31
60228;BME280;46091;46.512;6.626;2023-05-02T07:27:19;97189.16;;;16.44;54.16
60228;BME280;46091;46.512;6.626;2023-05-02T07:29:24;97177.50;;;16.38;54.13
60228;BME280;46091;46.512;6.626;2023-05-02T07:31:27;97186.31;;;16.39;54.21
60228;BME280;46091;46.512;6.626;2023-05-02T07:33:30;97178.53;;;16.37;54.05
60228;BME280;46091;46.512;6.626;2023-05-02T07:35:34;97191.06;;;16.37;53.70
60228;BME280;46091;46.512;6.626;2023-05-02T07:37:37;97177.38;;;16.33;53.69
60228;BME280;46091;46.512;6.626;2023-05-02T07:39:41;97179.22;;;16.33;53.73
60228;BME280;46091;46.512;6.626;2023-05-02T07:41:43;97173.66;;;16.34;53.59
60228;BME280;46091;46.512;6.626;2023-05-02T07:43:47;97176.56;;;16.33;53.64
60228;BME280;46091;46.512;6.626;2023-05-02T07:45:49;97183.06;;;16.37;53.36
60228;BME280;46091;46.512;6.626;2023-05-02T07:47:52;97176.88;;;16.43;53.38
60228;BME280;46091;46.512;6.626;2023-05-02T07:49:55;97179.09;;;16.46;53.34
60228;BME280;46091;46.512;6.626;2023-05-02T07:52:00;97164.84;;;16.52;53.26
60228;BME280;46091;46.512;6.626;2023-05-02T07:54:13;97176.78;;;16.49;52.83
60228;BME280;46091;46.512;6.626;2023-05-02T07:56:17;97188.28;;;16.50;52.90
60228;BME280;46091;46.512;6.626;2023-05-02T07:58:21;97180.25;;;16.50;53.05
60228;BME280;46091;46.512;6.626;2023-05-02T08:00:24;97160.31;;;16.52;52.72
60228;BME280;46091;46.512;6.626;2023-05-02T08:02:27;97177.97;;;16.53;52.86
60228;BME280;46091;46.512;6.626;2023-05-02T08:04:38;97173.00;;;16.57;52.78
60228;BME280;46091;46.512;6.626;2023-05-02T08:06:43;97172.56;;;16.60;52.77
60228;BME280;46091;46.512;6.626;2023-05-02T08:08:48;97170.06;;;16.65;52.77
60228;BME280;46091;46.512;6.626;2023-05-02T08:10:51;97167.97;;;16.67;52.45
60228;BME280;46091;46.512;6.626;2023-05-02T08:12:54;97167.97;;;16.67;52.22
60228;BME280;46091;46.512;6.626;2023-05-02T08:14:57;97176.22;;;16.66;52.24
60228;BME280;46091;46.512;6.626;2023-05-02T08:17:00;97165.13;;;16.69;52.04
60228;BME280;46091;46.512;6.626;2023-05-02T08:19:07;97181.25;;;16.74;52.03
60228;BME280;46091;46.512;6.626;2023-05-02T08:21:10;97180.63;;;16.78;51.92
60228;BME280;46091;46.512;6.626;2023-05-02T08:23:13;97172.28;;;16.86;51.97
60228;BME280;46091;46.512;6.626;2023-05-02T08:25:18;97177.34;;;16.95;51.64
60228;BME280;46091;46.512;6.626;2023-05-02T08:27:21;97181.78;;;17.01;51.63
60228;BME280;46091;46.512;6.626;2023-05-02T08:29:26;97185.88;;;17.03;51.36
60228;BME280;46091;46.512;6.626;2023-05-02T08:31:29;97174.94;;;17.05;51.48
60228;BME280;46091;46.512;6.626;2023-05-02T08:33:32;97181.47;;;17.09;51.29
60228;BME280;46091;46.512;6.626;2023-05-02T08:35:34;97186.59;;;17.10;51.21
60228;BME280;46091;46.512;6.626;2023-05-02T08:37:38;97176.50;;;17.12;51.18
60228;BME280;46091;46.512;6.626;2023-05-02T08:39:43;97183.03;;;17.16;51.07
60228;BME280;46091;46.512;6.626;2023-05-02T08:41:50;97182.34;;;17.21;50.94
60228;BME280;46091;46.512;6.626;2023-05-02T08:43:53;97171.22;;;17.24;50.96
60228;BME280;46091;46.512;6.626;2023-05-02T08:45:58;97182.25;;;17.28;50.89
60228;BME280;46091;46.512;6.626;2023-05-02T08:48:05;97176.69;;;17.29;50.77
60228;BME280;46091;46.512;6.626;2023-05-02T08:50:09;97170.28;;;17.30;50.66
60228;BME280;46091;46.512;6.626;2023-05-02T08:52:13;97189.00;;;17.30;50.57
60228;BME280;46091;46.512;6.626;2023-05-02T08:54:18;97191.44;;;17.32;50.50
60228;BME280;46091;46.512;6.626;2023-05-02T08:56:23;97192.06;;;17.34;50.58
60228;BME280;46091;46.512;6.626;2023-05-02T08:58:29;97193.47;;;17.36;50.33
60228;BME280;46091;46.512;6.626;2023-05-02T09:00:37;97189.38;;;17.34;50.04
60228;BME280;46091;46.512;6.626;2023-05-02T09:02:52;97183.81;;;17.35;49.99
60228;BME280;46091;46.512;6.626;2023-05-02T09:05:05;97180.91;;;17.37;49.89
60228;BME280;46091;46.512;6.626;2023-05-02T09:07:09;97183.13;;;17.40;50.03
60228;BME280;46091;46.512;6.626;2023-05-02T09:09:12;97183.03;;;17.46;49.87
60228;BME280;46091;46.512;6.626;2023-05-02T09:11:19;97191.19;;;17.52;49.70
60228;BME280;46091;46.512;6.626;2023-05-02T09:13:35;97190.13;;;17.53;49.85
60228;BME280;46091;46.512;6.626;2023-05-02T09:15:38;97182.69;;;17.55;49.78
60228;BME280;46091;46.512;6.626;2023-05-02T09:17:42;97183.31;;;17.57;49.79
60228;BME280;46091;46.512;6.626;2023-05-02T09:19:45;97192.03;;;17.64;49.66
60228;BME280;46091;46.512;6.626;2023-05-02T09:21:48;97178.00;;;17.68;49.58
60228;BME280;46091;46.512;6.626;2023-05-02T09:23:53;97183.13;;;17.70;49.50
60228;BME280;46091;46.512;6.626;2023-05-02T09:25:57;97186.00;;;17.68;49.46
60228;BME280;46091;46.512;6.626;2023-05-02T09:28:01;97194.66;;;17.70;49.38
60228;BME280;46091;46.512;6.626;2023-05-02T09:30:29;97191.28;;;17.75;49.42
60228;BME280;46091;46.512;6.626;2023-05-02T09:32:44;97199.53;;;17.73;49.01
60228;BME280;46091;46.512;6.626;2023-05-02T09:35:03;97191.28;;;17.75;49.09
60228;BME280;46091;46.512;6.626;2023-05-02T09:37:06;97196.78;;;17.80;48.91
60228;BME280;46091;46.512;6.626;2023-05-02T09:39:12;97187.47;;;17.83;49.00
60228;BME280;46091;46.512;6.626;2023-05-02T09:41:16;97198.50;;;17.86;48.84
60228;BME280;46091;46.512;6.626;2023-05-02T09:43:21;97201.19;;;17.86;48.40
60228;BME280;46091;46.512;6.626;2023-05-02T09:45:25;97195.25;;;17.84;48.24
60228;BME280;46091;46.512;6.626;2023-05-02T09:47:30;97193.63;;;17.83;48.28
60228;BME280;46091;46.512;6.626;2023-05-02T09:49:40;97193.31;;;17.91;48.35
60228;BME280;46091;46.512;6.626;2023-05-02T09:51:45;97185.88;;;17.93;47.99
60228;BME280;46091;46.512;6.626;2023-05-02T09:53:50;97192.84;;;17.94;48.06
60228;BME280;46091;46.512;6.626;2023-05-02T09:55:59;97192.38;;;17.97;48.15
60228;BME280;46091;46.512;6.626;2023-05-02T09:58:02;97194.38;;;18.02;48.05
60228;BME280;46091;46.512;6.626;2023-05-02T10:00:07;97186.69;;;18.06;48.06
60228;BME280;46091;46.512;6.626;2023-05-02T10:02:10;97192.84;;;18.06;48.01
60228;BME280;46091;46.512;6.626;2023-05-02T10:04:16;97191.56;;;18.09;47.82
60228;BME280;46091;46.512;6.626;2023-05-02T10:06:21;97203.09;;;18.09;47.71
60228;BME280;46091;46.512;6.626;2023-05-02T10:08:26;97201.69;;;18.07;47.70
60228;BME280;46091;46.512;6.626;2023-05-02T10:10:32;97194.25;;;18.09;47.63
60228;BME280;46091;46.512;6.626;2023-05-02T10:12:38;97203.66;;;18.11;47.57
60228;BME280;46091;46.512;6.626;2023-05-02T10:14:45;97194.38;;;18.14;47.51
60228;BME280;46091;46.512;6.626;2023-05-02T10:16:58;97211.03;;;18.16;47.77
60228;BME280;46091;46.512;6.626;2023-05-02T10:19:06;97196.03;;;18.26;47.61
60228;BME280;46091;46.512;6.626;2023-05-02T10:21:11;97206.84;;;18.31;47.51
60228;BME280;46091;46.512;6.626;2023-05-02T10:23:17;97207.22;;;18.35;47.27
60228;BME280;46091;46.512;6.626;2023-05-02T10:25:22;97203.00;;;18.39;47.01
60228;BME280;46091;46.512;6.626;2023-05-02T10:27:28;97202.44;;;18.37;47.19
60228;BME280;46091;46.512;6.626;2023-05-02T10:29:32;97200.56;;;18.38;47.17
60228;BME280;46091;46.512;6.626;2023-05-02T10:31:36;97198.47;;;18.40;46.85
60228;BME280;46091;46.512;6.626;2023-05-02T10:33:43;97188.34;;;18.42;46.68
60228;BME280;46091;46.512;6.626;2023-05-02T10:35:48;97187.28;;;18.43;46.52
60228;BME280;46091;46.512;6.626;2023-05-02T10:37:53;97192.78;;;18.48;46.63
60228;BME280;46091;46.512;6.626;2023-05-02T10:39:57;97191.25;;;18.52;46.11
60228;BME280;46091;46.512;6.626;2023-05-02T10:42:02;97184.59;;;18.54;46.25
60228;BME280;46091;46.512;6.626;2023-05-02T10:44:09;97184.97;;;18.58;46.23
60228;BME280;46091;46.512;6.626;2023-05-02T10:46:32;97183.19;;;18.63;45.97
60228;BME280;46091;46.512;6.626;2023-05-02T10:48:35;97181.13;;;18.66;45.82
60228;BME280;46091;46.512;6.626;2023-05-02T10:50:43;97180.66;;;18.69;45.71
60228;BME280;46091;46.512;6.626;2023-05-02T10:52:47;97182.31;;;18.70;45.59
60228;BME280;46091;46.512;6.626;2023-05-02T10:55:12;97182.06;;;18.71;45.40
60228;BME280;46091;46.512;6.626;2023-05-02T10:57:15;97179.97;;;18.73;45.29
60228;BME280;46091;46.512;6.626;2023-05-02T10:59:28;97187.53;;;18.76;45.03
60228;BME280;46091;46.512;6.626;2023-05-02T11:01:33;97179.81;;;18.80;45.04
60228;BME280;46091;46.512;6.626;2023-05-02T11:03:54;97181.47;;;18.81;44.85
60228;BME280;46091;46.512;6.626;2023-05-02T11:06:04;97190.66;;;18.85;44.64
60228;BME280;46091;46.512;6.626;2023-05-02T11:08:29;97187.50;;;18.88;44.64
60228;BME280;46091;46.512;6.626;2023-05-02T11:10:34;97180.63;;;18.92;44.38
60228;BME280;46091;46.512;6.626;2023-05-02T11:12:44;97178.78;;;18.93;44.19
60228;BME280;46091;46.512;6.626;2023-05-02T11:14:48;97163.50;;;18.93;44.35
60228;BME280;46091;46.512;6.626;2023-05-02T11:17:05;97167.81;;;18.94;44.14
60228;BME280;46091;46.512;6.626;2023-05-02T11:19:08;97180.50;;;18.99;44.23
60228;BME280;46091;46.512;6.626;2023-05-02T11:21:27;97173.38;;;19.04;44.16
60228;BME280;46091;46.512;6.626;2023-05-02T11:23:31;97172.91;;;19.07;43.97
60228;BME280;46091;46.512;6.626;2023-05-02T11:25:40;97176.16;;;19.09;44.23
60228;BME280;46091;46.512;6.626;2023-05-02T11:27:44;97182.31;;;19.10;43.68
60228;BME280;46091;46.512;6.626;2023-05-02T11:29:53;97178.09;;;19.14;43.83
60228;BME280;46091;46.512;6.626;2023-05-02T11:31:55;97181.97;;;19.18;43.71
60228;BME280;46091;46.512;6.626;2023-05-02T11:33:59;97181.16;;;19.17;43.57
60228;BME280;46091;46.512;6.626;2023-05-02T11:36:03;97168.88;;;19.22;43.52
60228;BME280;46091;46.512;6.626;2023-05-02T11:38:09;97184.97;;;19.22;43.20
60228;BME280;46091;46.512;6.626;2023-05-02T11:40:13;97181.72;;;19.19;43.41
60228;BME280;46091;46.512;6.626;2023-05-02T11:42:28;97183.09;;;19.22;42.98
60228;BME280;46091;46.512;6.626;2023-05-02T11:44:31;97176.69;;;19.23;43.05
60228;BME280;46091;46.512;6.626;2023-05-02T11:46:35;97181.81;;;19.25;42.96
60228;BME280;46091;46.512;6.626;2023-05-02T11:48:40;97184.03;;;19.28;42.91
60228;BME280;46091;46.512;6.626;2023-05-02T11:50:44;97175.41;;;19.26;42.69
60228;BME280;46091;46.512;6.626;2023-05-02T11:52:51;97185.66;;;19.29;42.84
60228;BME280;46091;46.512;6.626;2023-05-02T11:54:54;97180.03;;;19.30;42.71
60228;BME280;46091;46.512;6.626;2023-05-02T11:56:59;97174.34;;;19.27;42.80
60228;BME280;46091;46.512;6.626;2023-05-02T11:59:04;97183.53;;;19.31;43.00
60228;BME280;46091;46.512;6.626;2023-05-02T12:01:13;97185.16;;;19.32;42.61
60228;BME280;46091;46.512;6.626;2023-05-02T12:03:29;97175.50;;;19.31;42.67
60228;BME280;46091;46.512;6.626;2023-05-02T12:05:33;97171.19;;;19.30;42.52
60228;BME280;46091;46.512;6.626;2023-05-02T12:07:36;97171.53;;;19.33;42.74
60228;BME280;46091;46.512;6.626;2023-05-02T12:09:49;97173.50;;;19.38;42.47
60228;BME280;46091;46.512;6.626;2023-05-02T12:11:53;97177.88;;;19.44;42.54
60228;BME280;46091;46.512;6.626;2023-05-02T12:13:56;97179.50;;;19.45;42.52
60228;BME280;46091;46.512;6.626;2023-05-02T12:16:01;97173.09;;;19.46;42.30
60228;BME280;46091;46.512;6.626;2023-05-02T12:18:05;97170.41;;;19.46;42.30
60228;BME280;46091;46.512;6.626;2023-05-02T12:20:09;97166.66;;;19.47;41.97
60228;BME280;46091;46.512;6.626;2023-05-02T12:22:13;97176.69;;;19.52;42.04
60228;BME280;46091;46.512;6.626;2023-05-02T12:24:17;97174.25;;;19.50;42.14
60228;BME280;46091;46.512;6.626;2023-05-02T12:26:21;97178.06;;;19.54;42.05
60228;BME280;46091;46.512;6.626;2023-05-02T12:28:26;97193.72;;;19.57;41.74
60228;BME280;46091;46.512;6.626;2023-05-02T12:30:30;97187.28;;;19.58;41.88
60228;BME280;46091;46.512;6.626;2023-05-02T12:32:35;97173.88;;;19.58;41.62
60228;BME280;46091;46.512;6.626;2023-05-02T12:34:40;97179.84;;;19.60;41.37
60228;BME280;46091;46.512;6.626;2023-05-02T12:36:43;97184.72;;;19.63;41.21
60228;BME280;46091;46.512;6.626;2023-05-02T12:38:50;97182.84;;;19.64;41.36
60228;BME280;46091;46.512;6.626;2023-05-02T12:40:55;97182.84;;;19.64;41.30
60228;BME280;46091;46.512;6.626;2023-05-02T12:42:59;97177.81;;;19.67;40.98
60228;BME280;46091;46.512;6.626;2023-05-02T12:45:15;97182.69;;;19.70;41.09
60228;BME280;46091;46.512;6.626;2023-05-02T12:47:19;97180.59;;;19.72;41.07
60228;BME280;46091;46.512;6.626;2023-05-02T12:49:24;97179.28;;;19.75;41.13
60228;BME280;46091;46.512;6.626;2023-05-02T12:51:27;97183.34;;;19.77;40.72
60228;BME280;46091;46.512;6.626;2023-05-02T12:53:39;97184.47;;;19.82;40.58
60228;BME280;46091;46.512;6.626;2023-05-02T12:55:42;97179.13;;;19.82;40.47
60228;BME280;46091;46.512;6.626;2023-05-02T12:57:46;97196.50;;;19.79;40.87
60228;BME280;46091;46.512;6.626;2023-05-02T12:59:51;97187.91;;;19.77;40.81
60228;BME280;46091;46.512;6.626;2023-05-02T13:01:54;97169.69;;;19.79;41.02
60228;BME280;46091;46.512;6.626;2023-05-02T13:03:57;97170.50;;;19.80;40.85
60228;BME280;46091;46.512;6.626;2023-05-02T13:06:02;97176.22;;;19.83;40.93
60228;BME280;46091;46.512;6.626;2023-05-02T13:08:05;97184.00;;;19.85;40.68
60228;BME280;46091;46.512;6.626;2023-05-02T13:10:09;97175.41;;;19.83;40.71
60228;BME280;46091;46.512;6.626;2023-05-02T13:12:12;97166.28;;;19.84;40.66
60228;BME280;46091;46.512;6.626;2023-05-02T13:14:15;97170.59;;;19.85;40.75
60228;BME280;46091;46.512;6.626;2023-05-02T13:16:18;97177.34;;;19.87;40.58
60228;BME280;46091;46.512;6.626;2023-05-02T13:18:21;97172.28;;;19.91;40.66
60228;BME280;46091;46.512;6.626;2023-05-02T13:20:25;97177.78;;;19.96;40.39
60228;BME280;46091;46.512;6.626;2023-05-02T13:22:29;97182.06;;;19.97;40.62
60228;BME280;46091;46.512;6.626;2023-05-02T13:24:33;97179.53;;;19.90;40.42
60228;BME280;46091;46.512;6.626;2023-05-02T13:26:36;97180.28;;;19.86;40.27
60228;BME280;46091;46.512;6.626;2023-05-02T13:28:39;97179.72;;;19.84;40.21
60228;BME280;46091;46.512;6.626;2023-05-02T13:30:42;97178.09;;;19.83;40.36
60228;BME280;46091;46.512;6.626;2023-05-02T13:32:46;97178.09;;;19.83;40.08
60228;BME280;46091;46.512;6.626;2023-05-02T13:34:49;97170.03;;;19.83;40.32
60228;BME280;46091;46.512;6.626;2023-05-02T13:36:52;97176.53;;;19.87;40.33
60228;BME280;46091;46.512;6.626;2023-05-02T13:38:56;97162.72;;;19.95;40.44
60228;BME280;46091;46.512;6.626;2023-05-02T13:40:59;97175.72;;;20.03;40.07
60228;BME280;46091;46.512;6.626;2023-05-02T13:43:02;97152.22;;;20.10;39.89
60228;BME280;46091;46.512;6.626;2023-05-02T13:45:05;97163.53;;;20.12;39.84
60228;BME280;46091;46.512;6.626;2023-05-02T13:47:09;97168.63;;;20.14;39.73
60228;BME280;46091;46.512;6.626;2023-05-02T13:49:12;97169.38;;;20.09;39.93
60228;BME280;46091;46.512;6.626;2023-05-02T13:51:15;97172.47;;;20.01;39.96
60228;BME280;46091;46.512;6.626;2023-05-02T13:53:18;97170.19;;;19.93;39.84
60228;BME280;46091;46.512;6.626;2023-05-02T13:55:22;97176.53;;;19.87;39.77
60228;BME280;46091;46.512;6.626;2023-05-02T13:57:25;97176.53;;;19.87;39.73
60228;BME280;46091;46.512;6.626;2023-05-02T13:59:28;97171.16;;;19.87;40.04
60228;BME280;46091;46.512;6.626;2023-05-02T14:01:31;97179.22;;;19.87;39.79
60228;BME280;46091;46.512;6.626;2023-05-02T14:03:34;97162.06;;;19.88;39.55
60228;BME280;46091;46.512;6.626;2023-05-02T14:05:38;97173.34;;;19.90;39.78
60228;BME280;46091;46.512;6.626;2023-05-02T14:07:44;97167.75;;;19.91;39.77
60228;BME280;46091;46.512;6.626;2023-05-02T14:09:47;97157.81;;;19.92;39.77
60228;BME280;46091;46.512;6.626;2023-05-02T14:11:52;97156.19;;;19.91;39.56
60228;BME280;46091;46.512;6.626;2023-05-02T14:13:56;97158.97;;;19.96;39.68
60228;BME280;46091;46.512;6.626;2023-05-02T14:16:00;97162.78;;;20.00;39.25
60228;BME280;46091;46.512;6.626;2023-05-02T14:18:03;97154.25;;;20.03;39.18
60228;BME280;46091;46.512;6.626;2023-05-02T14:20:07;97158.56;;;20.04;39.11
60228;BME280;46091;46.512;6.626;2023-05-02T14:22:11;97169.28;;;20.04;39.31
60228;BME280;46091;46.512;6.626;2023-05-02T14:24:14;97174.09;;;20.02;39.16
60228;BME280;46091;46.512;6.626;2023-05-02T14:26:18;97174.59;;;19.99;38.72
60228;BME280;46091;46.512;6.626;2023-05-02T14:28:23;97172.16;;;19.97;38.90
60228;BME280;46091;46.512;6.626;2023-05-02T14:30:28;97172.97;;;19.98;38.87
60228;BME280;46091;46.512;6.626;2023-05-02T14:32:31;97179.72;;;20.00;38.79
60228;BME280;46091;46.512;6.626;2023-05-02T14:34:34;97173.28;;;20.01;38.76
60228;BME280;46091;46.512;6.626;2023-05-02T14:36:38;97161.25;;;20.04;38.79
60228;BME280;46091;46.512;6.626;2023-05-02T14:38:41;97167.75;;;20.08;38.58
60228;BME280;46091;46.512;6.626;2023-05-02T14:40:44;97165.66;;;20.10;38.35
60228;BME280;46091;46.512;6.626;2023-05-02T14:42:47;97165.97;;;20.14;38.40
60228;BME280;46091;46.512;6.626;2023-05-02T14:44:51;97156.38;;;20.18;38.54
60228;BME280;46091;46.512;6.626;2023-05-02T14:46:54;97165.25;;;20.18;38.42
60228;BME280;46091;46.512;6.626;2023-05-02T14:48:57;97154.25;;;20.20;38.16
60228;BME280;46091;46.512;6.626;2023-05-02T14:51:02;97163.38;;;20.19;37.94
60228;BME280;46091;46.512;6.626;2023-05-02T14:53:05;97156.03;;;20.14;38.12
60228;BME280;46091;46.512;6.626;2023-05-02T14:55:09;97160.59;;;20.14;38.39
60228;BME280;46091;46.512;6.626;2023-05-02T14:57:12;97156.03;;;20.14;37.87
60228;BME280;46091;46.512;6.626;2023-05-02T14:59:16;97151.97;;;20.12;38.26
60228;BME280;46091;46.512;6.626;2023-05-02T15:01:23;97157.34;;;20.12;38.04
60228;BME280;46091;46.512;6.626;2023-05-02T15:03:26;97167.03;;;20.13;37.62
60228;BME280;46091;46.512;6.626;2023-05-02T15:05:29;97149.28;;;20.12;37.54
60228;BME280;46091;46.512;6.626;2023-05-02T15:07:32;97146.34;;;20.13;37.66
60228;BME280;46091;46.512;6.626;2023-05-02T15:09:35;97143.44;;;20.15;37.85
60228;BME280;46091;46.512;6.626;2023-05-02T15:11:38;97143.44;;;20.15;37.87
60228;BME280;46091;46.512;6.626;2023-05-02T15:13:41;97138.66;;;20.17;37.61
60228;BME280;46091;46.512;6.626;2023-05-02T15:15:45;97137.34;;;20.19;37.70
60228;BME280;46091;46.512;6.626;2023-05-02T15:17:50;97150.50;;;20.21;37.98
60228;BME280;46091;46.512;6.626;2023-05-02T15:19:53;97150.00;;;20.24;37.63
60228;BME280;46091;46.512;6.626;2023-05-02T15:21:59;97142.53;;;20.26;37.53
60228;BME280;46091;46.512;6.626;2023-05-02T15:24:02;97146.59;;;20.28;37.47
60228;BME280;46091;46.512;6.626;2023-05-02T15:26:06;97148.22;;;20.29;37.68
60228;BME280;46091;46.512;6.626;2023-05-02T15:28:09;97139.38;;;20.29;37.77
60228;BME280;46091;46.512;6.626;2023-05-02T15:30:12;97151.16;;;20.28;37.76
60228;BME280;46091;46.512;6.626;2023-05-02T15:32:18;97154.66;;;20.28;37.70
60228;BME280;46091;46.512;6.626;2023-05-02T15:34:23;97157.56;;;20.27;37.76
60228;BME280;46091;46.512;6.626;2023-05-02T15:36:26;97154.06;;;20.26;37.72
60228;BME280;46091;46.512;6.626;2023-05-02T15:38:30;97155.13;;;20.25;37.55
60228;BME280;46091;46.512;6.626;2023-05-02T15:40:34;97153.03;;;20.27;37.24
60228;BME280;46091;46.512;6.626;2023-05-02T15:42:37;97160.25;;;20.27;37.50
60228;BME280;46091;46.512;6.626;2023-05-02T15:44:40;97149.50;;;20.27;37.08
60228;BME280;46091;46.512;6.626;2023-05-02T15:46:43;97150.34;;;20.27;37.32
60228;BME280;46091;46.512;6.626;2023-05-02T15:48:47;97151.72;;;20.30;37.10
60228;BME280;46091;46.512;6.626;2023-05-02T15:50:52;97163.03;;;20.32;37.16
60228;BME280;46091;46.512;6.626;2023-05-02T15:52:55;97165.47;;;20.33;37.23
60228;BME280;46091;46.512;6.626;2023-05-02T15:54:58;97178.63;;;20.35;37.00
60228;BME280;46091;46.512;6.626;2023-05-02T15:57:02;97168.16;;;20.33;37.05
60228;BME280;46091;46.512;6.626;2023-05-02T15:59:05;97170.78;;;20.28;37.06
60228;BME280;46091;46.512;6.626;2023-05-02T16:01:08;97172.28;;;20.24;36.94
60228;BME280;46091;46.512;6.626;2023-05-02T16:03:11;97169.78;;;20.18;36.89
60228;BME280;46091;46.512;6.626;2023-05-02T16:05:14;97170.03;;;20.16;36.66
60228;BME280;46091;46.512;6.626;2023-05-02T16:07:19;97167.56;;;20.15;36.85
60228;BME280;46091;46.512;6.626;2023-05-02T16:09:22;97163.84;;;20.16;36.85
60228;BME280;46091;46.512;6.626;2023-05-02T16:11:25;97167.38;;;20.16;36.53
60228;BME280;46091;46.512;6.626;2023-05-02T16:13:27;97167.13;;;20.18;36.60
60228;BME280;46091;46.512;6.626;2023-05-02T16:15:30;97168.75;;;20.19;36.12
60228;BME280;46091;46.512;6.626;2023-05-02T16:17:33;97173.28;;;20.18;36.09
60228;BME280;46091;46.512;6.626;2023-05-02T16:19:36;97167.38;;;20.16;36.39
60228;BME280;46091;46.512;6.626;2023-05-02T16:21:39;97168.75;;;20.19;36.23
60228;BME280;46091;46.512;6.626;2023-05-02T16:23:44;97165.81;;;20.20;36.19